Time;durP1;ratioP1;P1;durP2;ratioP2;P2;SDS_P1;SDS_P2;PMS_P1;PMS_P2;Temp;Humidity;BMP_temperature;BMP_pressure;BME280_temperature;BME280_humidity;BME280_pressure;Samples;Min_cycle;Max_cycle;Signal;HPM_P1;HPM_P2
2023/08/25 00:00:09;;;;;;;10.68;8.32;;;18.80;99.90;;;;;;4983690;28;20121;-77
2023/08/25 00:02:38;;;;;;;11.32;8.25;;;18.80;99.90;;;;;;4983063;28;20051;-77
2023/08/25 00:05:04;;;;;;;12.57;8.25;;;18.60;99.90;;;;;;4985737;28;20417;-76
2023/08/25 00:07:30;;;;;;;14.77;8.52;;;18.70;99.90;;;;;;5003399;28;20100;-77
2023/08/25 00:09:57;;;;;;;11.45;9.20;;;18.60;99.90;;;;;;5002537;28;20663;-77
2023/08/25 00:12:23;;;;;;;11.55;8.55;;;18.60;99.90;;;;;;4989494;28;20038;-78
2023/08/25 00:14:48;;;;;;;13.38;9.27;;;18.60;99.90;;;;;;5002019;28;20073;-77
2023/08/25 00:17:14;;;;;;;12.70;8.80;;;18.60;99.90;;;;;;4969906;28;20042;-77
2023/08/25 00:19:40;;;;;;;24.60;10.45;;;18.50;99.90;;;;;;4999044;28;20085;-77
2023/08/25 00:22:06;;;;;;;12.23;8.85;;;18.50;99.90;;;;;;5000598;28;20170;-76
2023/08/25 00:24:34;;;;;;;12.93;9.50;;;18.60;99.90;;;;;;4985802;28;20401;-76
2023/08/25 00:27:00;;;;;;;10.50;8.18;;;18.60;99.90;;;;;;4991746;28;20453;-76
2023/08/25 00:29:26;;;;;;;12.02;9.45;;;18.70;99.90;;;;;;4997759;28;20058;-76
2023/08/25 00:31:51;;;;;;;11.63;9.20;;;18.70;99.90;;;;;;4984225;28;20145;-77
2023/08/25 00:34:17;;;;;;;12.75;9.85;;;18.60;99.90;;;;;;4970705;28;20472;-77
2023/08/25 00:36:43;;;;;;;13.77;9.02;;;18.60;99.90;;;;;;4986511;28;20046;-77
2023/08/25 00:39:09;;;;;;;13.77;9.05;;;18.50;99.90;;;;;;4987116;28;20041;-77
2023/08/25 00:41:35;;;;;;;14.18;10.13;;;18.60;99.90;;;;;;4981151;28;20100;-76
2023/08/25 00:44:01;;;;;;;13.07;9.77;;;18.60;99.90;;;;;;4979602;28;20517;-77
2023/08/25 00:46:27;;;;;;;12.55;9.65;;;18.60;99.90;;;;;;4975380;28;20416;-77
2023/08/25 00:48:52;;;;;;;10.75;9.38;;;18.50;99.90;;;;;;4977858;28;20043;-77
2023/08/25 00:51:19;;;;;;;12.95;9.77;;;18.60;99.90;;;;;;4972507;28;20076;-76
2023/08/25 00:53:46;;;;;;;16.80;9.75;;;18.60;99.90;;;;;;4991913;28;20046;-77
2023/08/25 00:56:15;;;;;;;13.27;10.43;;;18.70;99.90;;;;;;5002611;28;20064;-77
2023/08/25 00:58:44;;;;;;;12.55;9.75;;;18.80;99.90;;;;;;4990331;28;20092;-77
2023/08/25 01:01:12;;;;;;;14.48;10.20;;;18.80;99.90;;;;;;4988631;28;20714;-77
2023/08/25 01:03:39;;;;;;;14.85;9.70;;;18.90;99.90;;;;;;4984885;28;20130;-77
2023/08/25 01:06:05;;;;;;;13.50;9.90;;;18.90;99.90;;;;;;4989386;28;20038;-77
2023/08/25 01:08:32;;;;;;;15.85;10.48;;;19.00;99.90;;;;;;4985403;28;20062;-77
2023/08/25 01:11:07;;;;;;;13.80;10.45;;;19.00;99.90;;;;;;4984080;28;20042;-77
2023/08/25 01:14:16;;;;;;;15.77;10.73;;;19.00;99.90;;;;;;4980772;28;20050;-77
2023/08/25 01:16:51;;;;;;;15.73;11.05;;;19.10;99.90;;;;;;4962557;28;20050;-77
2023/08/25 01:19:40;;;;;;;13.65;11.32;;;19.20;99.90;;;;;;4963411;28;20052;-77
2023/08/25 01:22:13;;;;;;;13.80;10.10;;;19.20;99.90;;;;;;4971073;28;20177;-76
2023/08/25 01:24:40;;;;;;;13.77;10.30;;;19.20;99.90;;;;;;4984610;28;20043;-77
2023/08/25 01:27:07;;;;;;;14.80;10.95;;;19.30;99.90;;;;;;5001247;28;20142;-77
2023/08/25 01:29:35;;;;;;;15.75;11.30;;;19.20;99.90;;;;;;4986220;28;20073;-77
2023/08/25 01:32:00;;;;;;;14.80;11.70;;;19.20;99.90;;;;;;4987478;28;20049;-78
2023/08/25 01:34:26;;;;;;;16.42;11.30;;;19.10;99.90;;;;;;4982916;28;20554;-77
2023/08/25 01:37:27;;;;;;;15.23;11.45;;;19.00;99.90;;;;;;4999844;28;20042;-77
2023/08/25 01:39:58;;;;;;;14.55;11.05;;;19.00;99.90;;;;;;4977046;28;20043;-77
2023/08/25 01:42:25;;;;;;;14.98;11.32;;;18.80;99.90;;;;;;4984372;28;20046;-77
2023/08/25 01:44:53;;;;;;;18.63;12.68;;;18.80;99.90;;;;;;4979677;28;20066;-77
2023/08/25 01:47:24;;;;;;;17.67;12.35;;;18.70;99.90;;;;;;4996680;28;20613;-77
2023/08/25 01:49:50;;;;;;;20.38;13.57;;;18.70;99.90;;;;;;4965962;28;20041;-76
2023/08/25 01:52:16;;;;;;;21.95;13.50;;;18.70;99.90;;;;;;4988788;28;20046;-78
2023/08/25 01:54:43;;;;;;;20.48;12.88;;;18.70;99.90;;;;;;4997409;28;20489;-77
2023/08/25 01:57:09;;;;;;;20.90;13.38;;;18.60;99.90;;;;;;4987398;28;20045;-77
2023/08/25 01:59:34;;;;;;;17.55;13.02;;;18.60;99.90;;;;;;4988541;28;20038;-77
2023/08/25 02:02:00;;;;;;;20.40;13.68;;;18.50;99.90;;;;;;4987139;28;20101;-77
2023/08/25 02:04:26;;;;;;;17.35;13.52;;;18.50;99.90;;;;;;5003023;28;20081;-76
2023/08/25 02:06:52;;;;;;;20.67;13.98;;;18.40;99.90;;;;;;4975956;28;20042;-77
2023/08/25 02:09:17;;;;;;;20.15;13.68;;;18.40;99.90;;;;;;4984554;28;20045;-77
2023/08/25 02:11:43;;;;;;;20.17;13.98;;;18.40;99.90;;;;;;4979980;28;20038;-77
2023/08/25 02:14:09;;;;;;;21.73;14.13;;;18.30;99.90;;;;;;4978554;28;20069;-77
2023/08/25 02:16:34;;;;;;;19.83;13.63;;;18.30;99.90;;;;;;4971667;28;20097;-78
2023/08/25 02:19:00;;;;;;;21.33;14.40;;;18.30;99.90;;;;;;4974140;28;20062;-76
2023/08/25 02:21:25;;;;;;;20.73;14.48;;;18.30;99.90;;;;;;4979934;28;20432;-77
2023/08/25 02:23:51;;;;;;;22.13;15.32;;;18.30;99.90;;;;;;5002591;28;20125;-76
2023/08/25 02:26:17;;;;;;;25.17;16.33;;;18.30;99.90;;;;;;4975184;28;20162;-76
2023/08/25 02:28:42;;;;;;;23.42;15.02;;;18.30;99.90;;;;;;4972076;28;20424;-76
2023/08/25 02:31:08;;;;;;;25.35;16.08;;;18.30;99.90;;;;;;4974622;28;20512;-79
2023/08/25 02:33:34;;;;;;;23.63;16.05;;;18.40;99.90;;;;;;4981271;28;20070;-79
2023/08/25 02:35:59;;;;;;;24.45;16.27;;;18.40;99.90;;;;;;4959355;28;20042;-77
2023/08/25 02:38:25;;;;;;;25.27;15.73;;;18.30;99.90;;;;;;5001268;28;20081;-77
2023/08/25 02:40:51;;;;;;;26.60;16.02;;;18.40;99.90;;;;;;4986688;28;20038;-75
2023/08/25 02:43:16;;;;;;;24.85;16.20;;;18.50;99.90;;;;;;4984119;28;20047;-78
2023/08/25 02:45:42;;;;;;;28.38;17.52;;;18.50;99.90;;;;;;4987691;28;20119;-77
2023/08/25 02:48:08;;;;;;;26.30;17.13;;;18.50;99.90;;;;;;4984637;28;20062;-77
2023/08/25 02:50:34;;;;;;;28.35;17.60;;;18.50;99.90;;;;;;4973673;28;20096;-78
2023/08/25 02:52:59;;;;;;;27.75;17.27;;;18.40;99.90;;;;;;4971913;28;20096;-77
2023/08/25 02:55:25;;;;;;;29.15;18.88;;;18.40;99.90;;;;;;4988984;28;20055;-77
2023/08/25 02:57:51;;;;;;;28.33;19.58;;;18.40;99.90;;;;;;4984608;28;20046;-77
2023/08/25 03:00:25;;;;;;;33.22;19.90;;;18.40;99.90;;;;;;4990241;28;20163;-77
2023/08/25 03:02:52;;;;;;;30.73;19.13;;;18.40;99.90;;;;;;4998731;28;20413;-77
2023/08/25 03:05:18;;;;;;;33.20;20.05;;;18.40;99.90;;;;;;4971399;28;20034;-76
2023/08/25 03:07:44;;;;;;;31.88;19.92;;;18.30;99.90;;;;;;4993193;28;20450;-77
2023/08/25 03:10:10;;;;;;;31.35;18.45;;;18.30;99.90;;;;;;4970970;28;20038;-77
2023/08/25 03:12:36;;;;;;;34.13;20.05;;;18.20;99.90;;;;;;4983469;28;20034;-77
2023/08/25 03:15:02;;;;;;;31.30;19.77;;;18.10;99.90;;;;;;4970390;28;20042;-77
2023/08/25 03:17:28;;;;;;;34.15;21.33;;;18.20;99.90;;;;;;4987199;28;20045;-77
2023/08/25 03:19:53;;;;;;;35.28;20.02;;;18.20;99.90;;;;;;4999856;28;20437;-77
2023/08/25 03:22:19;;;;;;;32.28;20.35;;;18.20;99.90;;;;;;4999310;28;20049;-77
2023/08/25 03:24:45;;;;;;;36.90;20.85;;;18.10;99.90;;;;;;4970515;28;20136;-77
2023/08/25 03:27:10;;;;;;;36.35;20.52;;;18.00;99.90;;;;;;4985891;28;20048;-77
2023/08/25 03:29:36;;;;;;;34.45;20.80;;;18.00;99.90;;;;;;4975686;28;20356;-77
2023/08/25 03:32:02;;;;;;;33.50;20.85;;;18.00;99.90;;;;;;4980635;28;20038;-76
2023/08/25 03:34:29;;;;;;;32.45;20.80;;;18.00;99.90;;;;;;4993547;28;20126;-77
2023/08/25 03:36:55;;;;;;;35.40;21.88;;;18.00;99.90;;;;;;4980994;28;20053;-77
2023/08/25 03:39:20;;;;;;;38.30;22.48;;;18.00;99.90;;;;;;4960504;28;20721;-77
2023/08/25 03:41:46;;;;;;;37.05;22.05;;;17.90;99.90;;;;;;5001765;28;20077;-77
2023/08/25 03:44:12;;;;;;;39.53;22.30;;;17.90;99.90;;;;;;4986225;28;20056;-77
2023/08/25 03:46:37;;;;;;;37.90;23.58;;;17.90;99.90;;;;;;4982539;28;20125;-77
2023/08/25 03:49:03;;;;;;;38.15;22.50;;;18.00;99.90;;;;;;4970200;28;20495;-77
2023/08/25 03:51:29;;;;;;;37.08;21.73;;;17.90;99.90;;;;;;4985025;28;20557;-77
2023/08/25 03:53:55;;;;;;;37.03;20.83;;;17.90;99.90;;;;;;4963256;28;20050;-76
2023/08/25 03:56:21;;;;;;;34.50;20.80;;;17.90;99.90;;;;;;4968150;28;20054;-77
2023/08/25 03:58:47;;;;;;;37.00;21.17;;;17.90;99.90;;;;;;4982929;28;20717;-77
2023/08/25 04:01:12;;;;;;;40.88;23.92;;;17.90;99.90;;;;;;4976324;28;20042;-77
2023/08/25 04:03:39;;;;;;;37.45;21.77;;;17.90;99.90;;;;;;4973068;28;20038;-77
2023/08/25 04:06:05;;;;;;;42.25;23.25;;;18.00;99.90;;;;;;4999209;28;20661;-76
2023/08/25 04:08:31;;;;;;;37.55;22.38;;;18.00;99.90;;;;;;4982112;28;20089;-77
2023/08/25 04:10:57;;;;;;;38.40;22.38;;;18.00;99.90;;;;;;4977566;28;20532;-77
2023/08/25 04:13:22;;;;;;;39.60;22.88;;;18.20;99.90;;;;;;4990066;28;20424;-77
2023/08/25 04:15:55;;;;;;;39.33;23.27;;;18.20;99.90;;;;;;4976990;28;20061;-77
2023/08/25 04:18:20;;;;;;;41.90;21.98;;;18.20;99.90;;;;;;4992280;28;20046;-77
2023/08/25 04:20:46;;;;;;;36.40;22.23;;;18.20;99.90;;;;;;4980580;28;20043;-77
2023/08/25 04:23:11;;;;;;;38.95;22.17;;;18.20;99.90;;;;;;4999850;28;20046;-77
2023/08/25 04:25:37;;;;;;;34.25;20.70;;;18.30;99.90;;;;;;4978742;28;20035;-77
2023/08/25 04:28:03;;;;;;;34.33;21.52;;;18.30;99.90;;;;;;4972952;28;20041;-77
2023/08/25 04:30:29;;;;;;;33.80;21.75;;;18.40;99.90;;;;;;4977157;28;20478;-77
2023/08/25 04:32:55;;;;;;;38.33;21.95;;;18.40;99.90;;;;;;4985498;28;20156;-77
2023/08/25 04:35:20;;;;;;;35.63;21.35;;;18.40;99.90;;;;;;4996361;28;20046;-77
2023/08/25 04:37:50;;;;;;;34.40;20.23;;;18.40;99.90;;;;;;4984758;28;20175;-77
2023/08/25 04:40:17;;;;;;;34.72;20.80;;;18.50;99.90;;;;;;4981115;28;20368;-77
2023/08/25 04:42:43;;;;;;;36.50;20.55;;;18.50;99.90;;;;;;4970206;28;20042;-77
2023/08/25 04:45:10;;;;;;;34.20;20.92;;;18.50;99.90;;;;;;4999831;28;20176;-77
2023/08/25 04:47:36;;;;;;;35.60;21.55;;;18.50;99.90;;;;;;4983889;28;20042;-78
2023/08/25 04:50:03;;;;;;;38.55;22.02;;;18.60;99.90;;;;;;4986030;28;20101;-78
2023/08/25 04:52:29;;;;;;;37.55;21.67;;;18.60;99.90;;;;;;4983796;28;20097;-77
2023/08/25 04:54:55;;;;;;;39.00;20.98;;;18.60;99.90;;;;;;4983139;28;20728;-78
2023/08/25 04:57:21;;;;;;;36.30;21.75;;;18.70;99.90;;;;;;4970099;28;20125;-78
2023/08/25 04:59:46;;;;;;;35.13;21.05;;;18.70;99.90;;;;;;4992153;28;20121;-77
2023/08/25 05:02:13;;;;;;;38.45;22.13;;;18.70;99.90;;;;;;4983836;28;20042;-77
2023/08/25 05:04:38;;;;;;;39.00;22.67;;;18.70;99.90;;;;;;4986175;28;20093;-77
2023/08/25 05:07:04;;;;;;;39.25;23.33;;;18.70;99.90;;;;;;4980245;28;20046;-77
2023/08/25 05:09:30;;;;;;;43.20;22.73;;;18.80;99.90;;;;;;4967564;28;20134;-78
2023/08/25 05:11:55;;;;;;;38.22;22.63;;;18.80;99.90;;;;;;4968056;28;20069;-76
2023/08/25 05:14:21;;;;;;;39.65;22.95;;;18.80;99.90;;;;;;4973265;28;20047;-76
2023/08/25 05:16:47;;;;;;;39.95;23.00;;;18.90;99.90;;;;;;4967568;28;20154;-76
2023/08/25 05:19:13;;;;;;;40.47;22.52;;;18.90;99.90;;;;;;4973732;28;20039;-77
2023/08/25 05:21:39;;;;;;;40.03;23.05;;;18.90;99.90;;;;;;4986136;28;20469;-76
2023/08/25 05:24:23;;;;;;;45.42;23.75;;;18.90;99.90;;;;;;4976996;28;20038;-76
2023/08/25 05:26:52;;;;;;;47.50;23.95;;;19.00;99.90;;;;;;4991299;28;20049;-76
2023/08/25 05:29:23;;;;;;;41.40;23.83;;;19.00;99.90;;;;;;4984728;28;20193;-77
2023/08/25 05:31:49;;;;;;;43.58;24.00;;;19.00;99.90;;;;;;5004004;28;20038;-77
2023/08/25 05:34:15;;;;;;;44.15;23.98;;;19.10;99.90;;;;;;5003605;28;20069;-76
2023/08/25 05:36:42;;;;;;;46.83;25.15;;;19.10;99.90;;;;;;4988051;28;20050;-77
2023/08/25 05:39:07;;;;;;;49.10;25.55;;;19.10;99.90;;;;;;4989479;28;20046;-76
2023/08/25 05:41:33;;;;;;;44.10;24.85;;;19.20;99.90;;;;;;4973449;28;20092;-77
2023/08/25 05:44:00;;;;;;;46.92;25.30;;;19.20;99.90;;;;;;4988926;28;20085;-78
2023/08/25 05:46:28;;;;;;;44.83;24.98;;;19.20;99.90;;;;;;4982424;28;20502;-78
2023/08/25 05:48:54;;;;;;;45.15;25.88;;;19.20;99.90;;;;;;4992351;28;20034;-78
2023/08/25 05:51:19;;;;;;;46.47;25.75;;;19.30;99.90;;;;;;4982742;28;20493;-78
2023/08/25 05:53:45;;;;;;;50.75;25.73;;;19.40;99.90;;;;;;4967605;28;20038;-78
2023/08/25 05:56:11;;;;;;;46.20;24.95;;;19.30;99.90;;;;;;4977603;28;20046;-78
2023/08/25 05:58:36;;;;;;;45.42;25.45;;;19.40;99.90;;;;;;4972948;28;20086;-78
2023/08/25 06:01:02;;;;;;;42.83;25.15;;;19.40;99.90;;;;;;4979836;28;20073;-77
2023/08/25 06:03:28;;;;;;;43.13;24.17;;;19.40;99.90;;;;;;5004996;28;20050;-78
2023/08/25 06:05:53;;;;;;;41.80;24.08;;;19.50;99.90;;;;;;5004473;28;20034;-78
2023/08/25 06:08:22;;;;;;;42.80;24.67;;;19.60;99.90;;;;;;5002903;28;20030;-78
2023/08/25 06:10:51;;;;;;;47.30;24.85;;;19.60;99.90;;;;;;4977112;28;20126;-77
2023/08/25 06:13:17;;;;;;;41.38;23.98;;;19.70;99.90;;;;;;4974419;28;20065;-77
2023/08/25 06:15:43;;;;;;;45.30;24.50;;;19.80;99.90;;;;;;4984253;28;20596;-77
2023/08/25 06:18:09;;;;;;;37.72;22.80;;;19.90;99.90;;;;;;5003938;28;20046;-77
2023/08/25 06:20:35;;;;;;;39.75;22.83;;;19.80;99.90;;;;;;4983662;28;20046;-77
2023/08/25 06:23:00;;;;;;;41.75;23.52;;;19.80;99.90;;;;;;5001539;28;20489;-78
2023/08/25 06:25:26;;;;;;;37.60;23.40;;;19.90;99.90;;;;;;4988308;28;20061;-76
2023/08/25 06:27:52;;;;;;;41.67;23.35;;;19.90;99.90;;;;;;4967536;28;20428;-77
2023/08/25 06:30:17;;;;;;;41.95;23.95;;;20.00;99.90;;;;;;4985816;28;20046;-77
2023/08/25 06:32:43;;;;;;;39.10;23.42;;;20.00;99.90;;;;;;5001794;28;20069;-77
2023/08/25 06:35:12;;;;;;;40.20;23.23;;;20.00;99.90;;;;;;5002924;28;20076;-77
2023/08/25 06:37:38;;;;;;;41.15;22.40;;;20.00;99.90;;;;;;5001867;28;20066;-77
2023/08/25 06:40:07;;;;;;;37.92;21.95;;;20.30;99.90;;;;;;5000810;28;20042;-78
2023/08/25 06:42:33;;;;;;;44.80;24.20;;;20.40;99.90;;;;;;4969074;28;20866;-77
2023/08/25 06:44:59;;;;;;;39.10;21.85;;;20.50;99.90;;;;;;5004431;28;20513;-76
2023/08/25 06:47:27;;;;;;;42.67;22.17;;;20.60;99.90;;;;;;4972581;28;20065;-77
2023/08/25 06:49:53;;;;;;;36.67;20.33;;;20.80;99.90;;;;;;4978417;28;20069;-77
2023/08/25 06:52:19;;;;;;;38.35;21.20;;;20.90;99.90;;;;;;4978125;28;20034;-77
2023/08/25 06:54:44;;;;;;;36.03;21.42;;;20.90;99.90;;;;;;5001801;28;20053;-77
2023/08/25 06:57:10;;;;;;;34.70;21.73;;;21.00;99.90;;;;;;4985719;28;20069;-78
2023/08/25 06:59:36;;;;;;;35.35;21.45;;;21.20;99.90;;;;;;4972434;28;20053;-78
2023/08/25 07:02:02;;;;;;;33.38;20.42;;;21.30;99.90;;;;;;4973871;28;20030;-78
2023/08/25 07:04:28;;;;;;;36.15;19.80;;;21.40;99.90;;;;;;4983352;28;20043;-78
2023/08/25 07:06:53;;;;;;;36.42;21.05;;;21.50;97.70;;;;;;4979091;28;20031;-77
2023/08/25 07:09:19;;;;;;;31.88;19.15;;;21.50;94.70;;;;;;4978928;28;20049;-77
2023/08/25 07:11:45;;;;;;;35.90;21.17;;;21.60;90.60;;;;;;4972432;28;20408;-79
2023/08/25 07:14:10;;;;;;;34.38;20.40;;;21.60;78.40;;;;;;4984679;28;20794;-78
2023/08/25 07:16:36;;;;;;;35.42;21.23;;;21.50;60.80;;;;;;4988075;28;20074;-77
2023/08/25 07:19:01;;;;;;;32.40;19.73;;;21.60;59.10;;;;;;5000479;28;20164;-78
2023/08/25 07:21:27;;;;;;;35.20;20.63;;;21.60;41.80;;;;;;4983257;28;20042;-77
2023/08/25 07:23:55;;;;;;;31.35;19.02;;;21.70;30.30;;;;;;4985582;28;20496;-77
2023/08/25 07:26:20;;;;;;;30.85;18.92;;;21.80;20.50;;;;;;4997156;28;20412;-77
2023/08/25 07:28:46;;;;;;;35.17;20.10;;;21.90;13.20;;;;;;4986136;28;20049;-77
2023/08/25 07:31:12;;;;;;;31.52;18.58;;;22.10;2.90;;;;;;4982208;28;20050;-77
2023/08/25 07:33:37;;;;;;;33.95;18.52;;;22.10;1.00;;;;;;4984162;28;20050;-78
2023/08/25 07:36:06;;;;;;;32.15;18.17;;;22.20;1.00;;;;;;4975437;28;20077;-78
2023/08/25 07:38:32;;;;;;;35.83;17.85;;;22.20;1.00;;;;;;4976773;28;20042;-78
2023/08/25 07:40:58;;;;;;;28.48;16.83;;;22.30;1.00;;;;;;4984383;28;20039;-78
2023/08/25 07:43:24;;;;;;;29.92;17.70;;;22.40;1.00;;;;;;4979945;28;20057;-78
2023/08/25 07:45:49;;;;;;;25.95;16.80;;;22.50;1.00;;;;;;4999882;28;20133;-78
2023/08/25 07:48:15;;;;;;;29.85;16.98;;;22.40;1.00;;;;;;4983126;28;20041;-78
2023/08/25 07:50:41;;;;;;;35.10;17.42;;;22.30;1.00;;;;;;4971249;28;20045;-79
2023/08/25 07:53:06;;;;;;;30.67;16.95;;;22.30;1.00;;;;;;4967244;28;20121;-78
2023/08/25 07:55:32;;;;;;;27.17;15.48;;;22.30;1.00;;;;;;4992965;28;20121;-77
2023/08/25 07:57:58;;;;;;;30.05;16.98;;;22.30;1.00;;;;;;4974431;28;20125;-77
2023/08/25 08:00:26;;;;;;;28.30;16.40;;;22.40;1.00;;;;;;4986222;28;20109;-78
2023/08/25 08:02:52;;;;;;;30.05;17.55;;;22.50;1.00;;;;;;4985118;28;20130;-78
2023/08/25 08:05:18;;;;;;;28.90;15.68;;;22.60;1.00;;;;;;4986749;28;20249;-78
2023/08/25 08:07:45;;;;;;;24.98;16.05;;;22.70;1.00;;;;;;4959084;28;20035;-79
2023/08/25 08:10:11;;;;;;;28.15;16.65;;;22.80;1.00;;;;;;4970073;28;20034;-78
2023/08/25 08:12:37;;;;;;;26.65;15.48;;;23.00;1.00;;;;;;5001484;28;20046;-79
2023/08/25 08:15:04;;;;;;;26.48;16.20;;;23.10;99.90;;;;;;4977992;28;20068;-78
2023/08/25 08:17:30;;;;;;;26.52;16.05;;;23.20;99.90;;;;;;4996013;28;20049;-78
2023/08/25 08:19:57;;;;;;;26.83;15.02;;;23.20;99.90;;;;;;4990590;28;20038;-79
2023/08/25 08:22:22;;;;;;;26.27;15.15;;;23.20;99.90;;;;;;4969713;28;20496;-79
2023/08/25 08:24:49;;;;;;;28.15;14.15;;;23.10;99.90;;;;;;4986150;28;20114;-79
2023/08/25 08:27:18;;;;;;;21.65;14.68;;;23.00;99.90;;;;;;4964448;28;20043;-79
2023/08/25 08:29:46;;;;;;;24.27;14.32;;;22.90;99.90;;;;;;4984079;28;20046;-77
2023/08/25 08:32:16;;;;;;;21.20;12.48;;;22.90;99.90;;;;;;4979985;28;21008;-77
2023/08/25 08:34:43;;;;;;;24.27;14.80;;;22.90;99.90;;;;;;4972678;28;20122;-77
2023/08/25 08:37:08;;;;;;;21.60;13.65;;;23.00;99.90;;;;;;4995821;28;20046;-78
2023/08/25 08:39:37;;;;;;;22.73;14.63;;;23.00;99.90;;;;;;4977434;28;20057;-78
2023/08/25 08:42:03;;;;;;;24.48;14.75;;;22.90;99.90;;;;;;4966995;28;20077;-80
2023/08/25 08:44:30;;;;;;;25.25;13.82;;;22.90;99.90;;;;;;4980254;28;20274;-79
2023/08/25 08:46:56;;;;;;;22.33;12.85;;;22.80;99.90;;;;;;4995836;28;20699;-79
2023/08/25 08:49:24;;;;;;;24.98;13.05;;;22.80;99.90;;;;;;4994253;28;20035;-79
2023/08/25 08:51:50;;;;;;;22.58;13.23;;;22.90;99.90;;;;;;4995990;28;20047;-79
2023/08/25 08:54:19;;;;;;;24.08;14.10;;;23.10;72.90;;;;;;4977165;28;20046;-79
2023/08/25 08:56:45;;;;;;;26.35;13.90;;;23.10;24.50;;;;;;4982981;28;20070;-79
2023/08/25 08:59:11;;;;;;;35.20;14.52;;;23.10;1.00;;;;;;4978745;28;20057;-78
2023/08/25 09:01:38;;;;;;;18.55;12.13;;;23.00;1.00;;;;;;5001784;28;20042;-78
2023/08/25 09:04:07;;;;;;;23.27;11.98;;;22.90;10.40;;;;;;4997142;28;20109;-79
2023/08/25 09:06:35;;;;;;;26.77;12.60;;;22.80;23.60;;;;;;4994146;28;20072;-78
2023/08/25 09:09:08;;;;;;;23.50;11.73;;;22.60;1.00;;;;;;4978639;28;20117;-79
2023/08/25 09:11:35;;;;;;;16.08;11.25;;;22.50;14.90;;;;;;4968483;28;20393;-79
2023/08/25 09:14:04;;;;;;;16.52;10.02;;;22.40;60.80;;;;;;4980788;28;20044;-78
2023/08/25 09:16:35;;;;;;;197.45;30.52;;;22.30;81.50;;;;;;4967220;28;20543;-76
2023/08/25 09:19:04;;;;;;;29.45;12.77;;;22.30;82.50;;;;;;4983671;28;20046;-82
2023/08/25 09:21:30;;;;;;;21.50;10.65;;;22.20;98.90;;;;;;4969205;28;20046;-79
2023/08/25 09:23:59;;;;;;;48.05;16.00;;;22.30;99.90;;;;;;4979451;28;20761;-81
2023/08/25 09:26:26;;;;;;;100.40;20.67;;;22.40;99.90;;;;;;4976877;28;20039;-81
2023/08/25 09:28:53;;;;;;;42.13;13.98;;;22.50;99.90;;;;;;4983564;28;20089;-80
2023/08/25 09:31:25;;;;;;;24.05;12.43;;;22.60;99.90;;;;;;4976104;28;20525;-80
2023/08/25 09:33:57;;;;;;;18.30;12.30;;;22.80;70.90;;;;;;4967471;28;20042;-82
2023/08/25 09:36:23;;;;;;;21.35;12.48;;;22.80;21.30;;;;;;4980807;28;20116;-80
2023/08/25 09:38:49;;;;;;;20.58;12.05;;;22.80;11.50;;;;;;4975764;28;20497;-81
2023/08/25 09:41:23;;;;;;;18.20;12.88;;;22.70;18.90;;;;;;4960412;28;20070;-81
2023/08/25 09:43:50;;;;;;;19.17;11.80;;;22.70;1.00;;;;;;4978555;28;20169;-80
2023/08/25 09:46:16;;;;;;;18.38;11.50;;;22.70;14.70;;;;;;4978825;28;20046;-80
2023/08/25 09:48:44;;;;;;;23.63;16.80;;;22.60;34.20;;;;;;4980637;28;20035;-80
2023/08/25 09:51:11;;;;;;;24.48;13.60;;;22.60;19.70;;;;;;4976569;28;20089;-80
2023/08/25 09:53:38;;;;;;;24.55;13.93;;;22.50;66.20;;;;;;4976512;28;20567;-81
2023/08/25 09:56:07;;;;;;;20.95;13.30;;;22.60;93.70;;;;;;4981989;28;20053;-80
2023/08/25 09:58:34;;;;;;;21.25;13.48;;;22.50;99.90;;;;;;4980043;28;20100;-80
2023/08/25 10:00:59;;;;;;;18.02;12.48;;;22.50;99.90;;;;;;4977327;28;21600;-79
2023/08/25 10:03:27;;;;;;;20.70;11.77;;;22.70;99.90;;;;;;4965383;28;20047;-81
2023/08/25 10:05:53;;;;;;;21.75;12.60;;;22.90;64.40;;;;;;4994242;28;20038;-81
2023/08/25 10:08:19;;;;;;;20.77;13.07;;;23.30;17.40;;;;;;4980778;28;20038;-80
2023/08/25 10:10:45;;;;;;;23.65;13.98;;;24.10;1.00;;;;;;4980263;28;20045;-81
2023/08/25 10:13:14;;;;;;;20.23;13.07;;;24.90;99.90;;;;;;4980508;28;20072;-79
2023/08/25 10:15:44;;;;;;;17.10;11.50;;;25.40;99.90;;;;;;4964726;28;20062;-80
2023/08/25 10:18:10;;;;;;;17.10;11.15;;;26.10;99.90;;;;;;4999788;28;20470;-80
2023/08/25 10:20:37;;;;;;;14.40;10.23;;;27.20;99.90;;;;;;4983380;28;20125;-80
2023/08/25 10:23:08;;;;;;;18.52;10.77;;;28.60;78.80;;;;;;4983273;28;20062;-80
2023/08/25 10:25:36;;;;;;;19.30;11.10;;;29.60;1.00;;;;;;4985439;28;20126;-79
2023/08/25 10:28:03;;;;;;;16.73;11.02;;;29.80;1.00;;;;;;4998108;28;21709;-78
2023/08/25 10:30:30;;;;;;;20.35;10.95;;;29.20;1.00;;;;;;4982756;28;20057;-80
2023/08/25 10:33:00;;;;;;;19.88;12.88;;;28.60;1.00;;;;;;4977189;28;20042;-82
2023/08/25 10:35:43;;;;;;;20.13;11.82;;;28.10;1.00;;;;;;4983436;28;20120;-81
2023/08/25 10:38:22;;;;;;;22.58;13.55;;;27.50;1.00;;;;;;4979971;28;20150;-82
2023/08/25 10:40:51;;;;;;;23.42;14.25;;;26.80;1.00;;;;;;5007944;28;20049;-81
2023/08/25 10:43:24;;;;;;;20.88;13.55;;;26.40;1.00;;;;;;4989134;28;20058;-81
2023/08/25 10:45:51;;;;;;;20.77;13.80;;;26.10;1.00;;;;;;4990208;28;20544;-81
2023/08/25 10:48:19;;;;;;;23.83;14.35;;;25.90;1.00;;;;;;5007011;28;20073;-83
2023/08/25 10:50:45;;;;;;;22.20;14.82;;;25.80;1.00;;;;;;4971296;28;20042;-80
2023/08/25 10:53:37;;;;;;;22.20;14.25;;;25.60;1.00;;;;;;4971685;28;20061;-81
2023/08/25 10:56:20;;;;;;;20.88;13.63;;;25.40;1.00;;;;;;4991270;28;20111;-81
2023/08/25 10:59:03;;;;;;;20.20;12.80;;;25.20;5.20;;;;;;4988022;28;20130;-80
2023/08/25 11:01:38;;;;;;;19.63;13.25;;;25.10;16.50;;;;;;4982548;28;21191;-80
2023/08/25 11:04:24;;;;;;;20.37;13.57;;;24.90;26.70;;;;;;4998420;28;20045;-80
2023/08/25 11:06:51;;;;;;;23.15;12.77;;;24.60;53.60;;;;;;4966137;28;20301;-81
2023/08/25 11:09:26;;;;;;;19.10;12.45;;;24.30;99.90;;;;;;5000413;28;20125;-81
2023/08/25 11:12:00;;;;;;;18.50;12.10;;;24.10;99.90;;;;;;5000448;28;20561;-81
2023/08/25 11:14:34;;;;;;;18.15;12.70;;;24.00;99.90;;;;;;4995741;28;20296;-80
2023/08/25 11:17:04;;;;;;;21.38;12.55;;;24.00;99.90;;;;;;4973634;28;21884;-82
2023/08/25 11:19:32;;;;;;;20.10;13.13;;;24.40;99.90;;;;;;4979769;28;20117;-80
2023/08/25 11:22:03;;;;;;;20.08;12.68;;;24.90;99.90;;;;;;4969442;28;20077;-81
2023/08/25 11:24:30;;;;;;;21.27;12.50;;;25.50;99.90;;;;;;4983344;28;20488;-80
2023/08/25 11:27:06;;;;;;;16.13;10.90;;;25.80;99.90;;;;;;4979555;28;20034;-81
2023/08/25 11:29:33;;;;;;;21.40;10.75;;;25.80;50.00;;;;;;4966472;28;20527;-81
2023/08/25 11:31:59;;;;;;;21.95;12.23;;;25.70;18.90;;;;;;4986650;28;20058;-81
2023/08/25 11:34:28;;;;;;;17.40;10.88;;;25.60;10.30;;;;;;4982990;28;20408;-81
2023/08/25 11:36:54;;;;;;;17.63;11.35;;;25.60;1.00;;;;;;4978707;28;20121;-81
2023/08/25 11:39:19;;;;;;;17.48;11.07;;;25.60;1.00;;;;;;4985335;28;20138;-81
2023/08/25 11:41:46;;;;;;;19.58;10.75;;;25.70;1.00;;;;;;4992687;28;20124;-80
2023/08/25 11:44:12;;;;;;;17.25;11.25;;;25.70;1.00;;;;;;4981479;28;20145;-80
2023/08/25 11:46:38;;;;;;;18.27;10.32;;;25.70;1.00;;;;;;4984275;28;20039;-80
2023/08/25 11:49:06;;;;;;;15.05;9.35;;;25.80;1.00;;;;;;4982793;28;20073;-80
2023/08/25 11:51:35;;;;;;;16.70;10.43;;;26.00;1.00;;;;;;4975929;28;20117;-80
2023/08/25 11:54:01;;;;;;;14.70;8.95;;;26.20;1.00;;;;;;4968434;28;20046;-81
2023/08/25 11:56:27;;;;;;;15.05;8.65;;;26.50;1.00;;;;;;4986016;28;20049;-80
2023/08/25 11:58:53;;;;;;;13.73;7.57;;;27.30;1.00;;;;;;4980420;28;20039;-81
2023/08/25 12:01:19;;;;;;;17.08;8.43;;;27.40;1.00;;;;;;4986378;28;20129;-80
2023/08/25 12:03:46;;;;;;;19.13;10.77;;;26.90;1.00;;;;;;4987491;28;20049;-80
2023/08/25 12:06:13;;;;;;;16.90;10.43;;;26.40;1.00;;;;;;4997712;28;20049;-81
2023/08/25 12:08:40;;;;;;;21.50;12.55;;;26.00;1.00;;;;;;4999639;28;20030;-80
2023/08/25 12:11:08;;;;;;;16.70;11.40;;;25.90;1.00;;;;;;4987698;28;20034;-82
2023/08/25 12:13:38;;;;;;;15.63;10.23;;;25.70;1.00;;;;;;4987328;28;20053;-80
2023/08/25 12:16:04;;;;;;;15.10;10.60;;;25.60;1.00;;;;;;4971186;28;20548;-80
2023/08/25 12:18:36;;;;;;;15.23;10.85;;;25.30;1.00;;;;;;5003718;28;20405;-80
2023/08/25 12:21:03;;;;;;;13.68;10.55;;;25.30;1.00;;;;;;4974004;28;20042;-81
2023/08/25 12:23:37;;;;;;;16.67;10.18;;;25.50;1.00;;;;;;4975290;28;20081;-80
2023/08/25 12:26:07;;;;;;;18.02;10.60;;;26.00;1.00;;;;;;4992403;28;20041;-81
2023/08/25 12:28:34;;;;;;;16.25;10.27;;;26.30;1.00;;;;;;4962670;28;20115;-80
2023/08/25 12:31:01;;;;;;;17.85;11.13;;;26.40;1.00;;;;;;4971024;28;20051;-81